sensor_id;sensor_type;location;lat;lon;timestamp;P1;durP1;ratioP1;P2;durP2;ratioP2
39778;SDS011;25454;49.878;8.618;2023-06-10T00:01:35;13.40;;;6.93;;
39778;SDS011;25454;49.878;8.618;2023-06-10T00:06:36;7.93;;;6.93;;
39778;SDS011;25454;49.878;8.618;2023-06-10T00:11:37;8.60;;;6.53;;
39778;SDS011;25454;49.878;8.618;2023-06-10T00:16:37;8.27;;;6.93;;
39778;SDS011;25454;49.878;8.618;2023-06-10T00:21:39;7.13;;;6.40;;
39778;SDS011;25454;49.878;8.618;2023-06-10T00:26:44;7.23;;;6.53;;
39778;SDS011;25454;49.878;8.618;2023-06-10T00:31:45;7.30;;;6.50;;
39778;SDS011;25454;49.878;8.618;2023-06-10T00:36:46;8.67;;;6.83;;
39778;SDS011;25454;49.878;8.618;2023-06-10T00:41:47;7.50;;;6.80;;
39778;SDS011;25454;49.878;8.618;2023-06-10T00:46:47;7.83;;;7.03;;
39778;SDS011;25454;49.878;8.618;2023-06-10T00:51:51;10.50;;;7.37;;
39778;SDS011;25454;49.878;8.618;2023-06-10T00:56:53;8.90;;;6.87;;
39778;SDS011;25454;49.878;8.618;2023-06-10T01:01:55;12.17;;;7.10;;
39778;SDS011;25454;49.878;8.618;2023-06-10T01:12:30;10.30;;;7.33;;
39778;SDS011;25454;49.878;8.618;2023-06-10T01:17:37;8.60;;;7.37;;
39778;SDS011;25454;49.878;8.618;2023-06-10T01:22:54;8.87;;;7.30;;
39778;SDS011;25454;49.878;8.618;2023-06-10T01:33:14;8.17;;;7.37;;
39778;SDS011;25454;49.878;8.618;2023-06-10T01:38:19;8.37;;;7.07;;
39778;SDS011;25454;49.878;8.618;2023-06-10T01:43:20;7.97;;;7.00;;
39778;SDS011;25454;49.878;8.618;2023-06-10T01:48:21;9.27;;;7.13;;
39778;SDS011;25454;49.878;8.618;2023-06-10T01:53:22;7.87;;;7.07;;
39778;SDS011;25454;49.878;8.618;2023-06-10T01:58:23;10.47;;;7.10;;
39778;SDS011;25454;49.878;8.618;2023-06-10T02:03:23;7.57;;;6.50;;
39778;SDS011;25454;49.878;8.618;2023-06-10T02:08:24;11.20;;;7.50;;
39778;SDS011;25454;49.878;8.618;2023-06-10T02:13:24;8.57;;;7.50;;
39778;SDS011;25454;49.878;8.618;2023-06-10T02:18:25;10.13;;;8.43;;
39778;SDS011;25454;49.878;8.618;2023-06-10T02:23:27;10.63;;;8.30;;
39778;SDS011;25454;49.878;8.618;2023-06-10T02:28:27;7.10;;;6.37;;
39778;SDS011;25454;49.878;8.618;2023-06-10T02:33:28;13.27;;;8.03;;
39778;SDS011;25454;49.878;8.618;2023-06-10T02:38:28;9.90;;;7.63;;
39778;SDS011;25454;49.878;8.618;2023-06-10T02:43:29;7.70;;;7.03;;
39778;SDS011;25454;49.878;8.618;2023-06-10T02:48:29;8.00;;;7.30;;
39778;SDS011;25454;49.878;8.618;2023-06-10T02:53:30;9.40;;;7.00;;
39778;SDS011;25454;49.878;8.618;2023-06-10T02:58:31;7.70;;;7.00;;
39778;SDS011;25454;49.878;8.618;2023-06-10T03:03:32;9.50;;;8.60;;
39778;SDS011;25454;49.878;8.618;2023-06-10T03:08:33;9.47;;;8.10;;
39778;SDS011;25454;49.878;8.618;2023-06-10T03:13:34;10.87;;;8.27;;
39778;SDS011;25454;49.878;8.618;2023-06-10T03:18:34;9.90;;;8.43;;
39778;SDS011;25454;49.878;8.618;2023-06-10T03:23:35;8.60;;;7.67;;
39778;SDS011;25454;49.878;8.618;2023-06-10T03:28:36;9.70;;;7.83;;
39778;SDS011;25454;49.878;8.618;2023-06-10T03:33:40;8.00;;;7.20;;
39778;SDS011;25454;49.878;8.618;2023-06-10T03:38:40;10.03;;;8.83;;
39778;SDS011;25454;49.878;8.618;2023-06-10T03:43:41;9.97;;;8.37;;
39778;SDS011;25454;49.878;8.618;2023-06-10T03:48:42;15.47;;;8.60;;
39778;SDS011;25454;49.878;8.618;2023-06-10T03:53:42;8.53;;;7.73;;
39778;SDS011;25454;49.878;8.618;2023-06-10T03:58:43;11.17;;;8.80;;
39778;SDS011;25454;49.878;8.618;2023-06-10T04:03:43;10.03;;;9.03;;
39778;SDS011;25454;49.878;8.618;2023-06-10T04:08:44;12.40;;;8.63;;
39778;SDS011;25454;49.878;8.618;2023-06-10T04:13:44;16.37;;;9.20;;
39778;SDS011;25454;49.878;8.618;2023-06-10T04:18:45;14.33;;;8.97;;
39778;SDS011;25454;49.878;8.618;2023-06-10T04:23:46;9.10;;;7.90;;
39778;SDS011;25454;49.878;8.618;2023-06-10T04:28:46;8.57;;;7.70;;
39778;SDS011;25454;49.878;8.618;2023-06-10T04:33:47;9.07;;;6.83;;
39778;SDS011;25454;49.878;8.618;2023-06-10T04:38:47;8.90;;;7.70;;
39778;SDS011;25454;49.878;8.618;2023-06-10T04:43:48;8.87;;;7.23;;
39778;SDS011;25454;49.878;8.618;2023-06-10T04:48:48;8.17;;;7.37;;
39778;SDS011;25454;49.878;8.618;2023-06-10T04:53:49;8.77;;;7.47;;
39778;SDS011;25454;49.878;8.618;2023-06-10T04:58:50;12.40;;;7.57;;
39778;SDS011;25454;49.878;8.618;2023-06-10T05:03:50;7.77;;;7.03;;
39778;SDS011;25454;49.878;8.618;2023-06-10T05:08:51;8.40;;;6.80;;
39778;SDS011;25454;49.878;8.618;2023-06-10T05:13:52;7.77;;;6.97;;
39778;SDS011;25454;49.878;8.618;2023-06-10T05:18:52;9.10;;;7.27;;
39778;SDS011;25454;49.878;8.618;2023-06-10T05:23:54;9.13;;;6.63;;
39778;SDS011;25454;49.878;8.618;2023-06-10T05:28:54;7.20;;;6.23;;
39778;SDS011;25454;49.878;8.618;2023-06-10T05:33:55;8.90;;;7.07;;
39778;SDS011;25454;49.878;8.618;2023-06-10T05:38:56;7.43;;;6.67;;
39778;SDS011;25454;49.878;8.618;2023-06-10T05:43:56;7.50;;;6.43;;
39778;SDS011;25454;49.878;8.618;2023-06-10T05:48:57;7.20;;;6.07;;
39778;SDS011;25454;49.878;8.618;2023-06-10T05:53:57;7.80;;;6.07;;
39778;SDS011;25454;49.878;8.618;2023-06-10T05:58:58;9.03;;;6.70;;
39778;SDS011;25454;49.878;8.618;2023-06-10T06:03:58;6.73;;;5.87;;
39778;SDS011;25454;49.878;8.618;2023-06-10T06:08:59;7.73;;;5.80;;
39778;SDS011;25454;49.878;8.618;2023-06-10T06:13:59;6.47;;;5.87;;
39778;SDS011;25454;49.878;8.618;2023-06-10T06:19:00;7.57;;;6.10;;
39778;SDS011;25454;49.878;8.618;2023-06-10T06:24:01;6.77;;;5.50;;
39778;SDS011;25454;49.878;8.618;2023-06-10T06:29:01;8.60;;;6.07;;
39778;SDS011;25454;49.878;8.618;2023-06-10T06:34:02;7.27;;;6.13;;
39778;SDS011;25454;49.878;8.618;2023-06-10T06:39:03;9.40;;;6.00;;
39778;SDS011;25454;49.878;8.618;2023-06-10T06:44:03;6.87;;;6.10;;
39778;SDS011;25454;49.878;8.618;2023-06-10T06:49:04;8.53;;;5.90;;
39778;SDS011;25454;49.878;8.618;2023-06-10T06:54:06;7.17;;;5.77;;
39778;SDS011;25454;49.878;8.618;2023-06-10T06:59:06;6.43;;;5.80;;
39778;SDS011;25454;49.878;8.618;2023-06-10T07:04:07;7.40;;;5.63;;
39778;SDS011;25454;49.878;8.618;2023-06-10T07:09:08;5.87;;;5.37;;
39778;SDS011;25454;49.878;8.618;2023-06-10T07:14:09;6.23;;;5.10;;
39778;SDS011;25454;49.878;8.618;2023-06-10T07:19:09;9.00;;;5.47;;
39778;SDS011;25454;49.878;8.618;2023-06-10T07:24:10;6.07;;;5.47;;
39778;SDS011;25454;49.878;8.618;2023-06-10T07:29:11;7.23;;;5.70;;
39778;SDS011;25454;49.878;8.618;2023-06-10T07:34:12;7.57;;;5.40;;
39778;SDS011;25454;49.878;8.618;2023-06-10T07:39:13;7.20;;;5.57;;
39778;SDS011;25454;49.878;8.618;2023-06-10T07:44:13;8.47;;;5.10;;
39778;SDS011;25454;49.878;8.618;2023-06-10T07:49:14;6.30;;;5.40;;
39778;SDS011;25454;49.878;8.618;2023-06-10T07:54:15;6.23;;;5.63;;
39778;SDS011;25454;49.878;8.618;2023-06-10T07:59:15;7.03;;;5.80;;
39778;SDS011;25454;49.878;8.618;2023-06-10T08:04:17;6.43;;;5.17;;
39778;SDS011;25454;49.878;8.618;2023-06-10T08:09:17;9.77;;;5.67;;
39778;SDS011;25454;49.878;8.618;2023-06-10T08:14:18;6.33;;;5.50;;
39778;SDS011;25454;49.878;8.618;2023-06-10T08:19:19;5.87;;;5.30;;
39778;SDS011;25454;49.878;8.618;2023-06-10T08:24:19;7.23;;;5.77;;
39778;SDS011;25454;49.878;8.618;2023-06-10T08:29:20;6.20;;;5.60;;
39778;SDS011;25454;49.878;8.618;2023-06-10T08:34:20;6.03;;;5.43;;
39778;SDS011;25454;49.878;8.618;2023-06-10T08:39:21;7.10;;;5.47;;
39778;SDS011;25454;49.878;8.618;2023-06-10T08:44:27;6.90;;;5.17;;
39778;SDS011;25454;49.878;8.618;2023-06-10T08:49:30;9.70;;;5.60;;
39778;SDS011;25454;49.878;8.618;2023-06-10T08:54:34;9.40;;;5.43;;
39778;SDS011;25454;49.878;8.618;2023-06-10T08:59:38;7.33;;;5.47;;
39778;SDS011;25454;49.878;8.618;2023-06-10T09:04:39;8.20;;;5.47;;
39778;SDS011;25454;49.878;8.618;2023-06-10T09:09:42;5.93;;;5.17;;
39778;SDS011;25454;49.878;8.618;2023-06-10T09:14:44;6.30;;;5.30;;
39778;SDS011;25454;49.878;8.618;2023-06-10T09:19:44;7.20;;;5.50;;
39778;SDS011;25454;49.878;8.618;2023-06-10T09:24:47;7.13;;;5.50;;
39778;SDS011;25454;49.878;8.618;2023-06-10T09:29:51;6.03;;;5.10;;
39778;SDS011;25454;49.878;8.618;2023-06-10T09:34:53;8.20;;;4.63;;
39778;SDS011;25454;49.878;8.618;2023-06-10T09:40:04;5.93;;;4.93;;
39778;SDS011;25454;49.878;8.618;2023-06-10T09:45:06;7.30;;;4.33;;
39778;SDS011;25454;49.878;8.618;2023-06-10T09:50:07;6.27;;;5.20;;
39778;SDS011;25454;49.878;8.618;2023-06-10T09:55:09;5.93;;;4.83;;
39778;SDS011;25454;49.878;8.618;2023-06-10T10:00:11;7.57;;;4.67;;
39778;SDS011;25454;49.878;8.618;2023-06-10T10:05:13;5.03;;;4.43;;
39778;SDS011;25454;49.878;8.618;2023-06-10T10:10:16;7.57;;;4.90;;
39778;SDS011;25454;49.878;8.618;2023-06-10T10:15:17;5.17;;;4.77;;
39778;SDS011;25454;49.878;8.618;2023-06-10T10:20:20;4.77;;;4.37;;
39778;SDS011;25454;49.878;8.618;2023-06-10T10:25:27;5.37;;;4.50;;
39778;SDS011;25454;49.878;8.618;2023-06-10T10:30:34;7.20;;;4.50;;
39778;SDS011;25454;49.878;8.618;2023-06-10T10:35:42;4.60;;;4.23;;
39778;SDS011;25454;49.878;8.618;2023-06-10T10:40:43;8.50;;;4.03;;
39778;SDS011;25454;49.878;8.618;2023-06-10T10:45:46;5.37;;;4.00;;
39778;SDS011;25454;49.878;8.618;2023-06-10T10:50:57;5.53;;;4.10;;
39778;SDS011;25454;49.878;8.618;2023-06-10T10:56:08;6.87;;;3.83;;
39778;SDS011;25454;49.878;8.618;2023-06-10T11:01:13;5.77;;;3.43;;
39778;SDS011;25454;49.878;8.618;2023-06-10T11:06:15;3.90;;;3.23;;
39778;SDS011;25454;49.878;8.618;2023-06-10T11:11:20;3.63;;;2.87;;
39778;SDS011;25454;49.878;8.618;2023-06-10T11:16:26;4.27;;;3.10;;
39778;SDS011;25454;49.878;8.618;2023-06-10T11:21:27;5.50;;;3.17;;
39778;SDS011;25454;49.878;8.618;2023-06-10T11:31:33;3.70;;;3.00;;
39778;SDS011;25454;49.878;8.618;2023-06-10T11:36:39;4.33;;;3.50;;
39778;SDS011;25454;49.878;8.618;2023-06-10T11:41:42;4.97;;;3.37;;
39778;SDS011;25454;49.878;8.618;2023-06-10T11:46:43;4.53;;;3.20;;
39778;SDS011;25454;49.878;8.618;2023-06-10T11:51:45;6.17;;;3.63;;
39778;SDS011;25454;49.878;8.618;2023-06-10T11:56:49;5.97;;;3.80;;
39778;SDS011;25454;49.878;8.618;2023-06-10T12:01:50;5.13;;;3.47;;
39778;SDS011;25454;49.878;8.618;2023-06-10T12:06:51;4.00;;;3.53;;
39778;SDS011;25454;49.878;8.618;2023-06-10T12:11:54;4.00;;;3.60;;
39778;SDS011;25454;49.878;8.618;2023-06-10T12:16:56;3.73;;;3.33;;
39778;SDS011;25454;49.878;8.618;2023-06-10T12:21:56;3.90;;;3.50;;
39778;SDS011;25454;49.878;8.618;2023-06-10T12:27:00;4.27;;;3.50;;
39778;SDS011;25454;49.878;8.618;2023-06-10T12:32:01;4.90;;;3.73;;
39778;SDS011;25454;49.878;8.618;2023-06-10T12:37:05;4.27;;;3.60;;
39778;SDS011;25454;49.878;8.618;2023-06-10T12:42:14;4.70;;;4.10;;
39778;SDS011;25454;49.878;8.618;2023-06-10T12:47:14;3.83;;;3.53;;
39778;SDS011;25454;49.878;8.618;2023-06-10T12:52:16;5.00;;;3.80;;
39778;SDS011;25454;49.878;8.618;2023-06-10T12:57:17;4.80;;;3.80;;
39778;SDS011;25454;49.878;8.618;2023-06-10T13:02:18;4.37;;;3.70;;
39778;SDS011;25454;49.878;8.618;2023-06-10T13:07:19;4.40;;;3.90;;
39778;SDS011;25454;49.878;8.618;2023-06-10T13:12:25;4.93;;;4.40;;
39778;SDS011;25454;49.878;8.618;2023-06-10T13:17:28;4.30;;;4.00;;
39778;SDS011;25454;49.878;8.618;2023-06-10T13:22:35;4.20;;;3.80;;
39778;SDS011;25454;49.878;8.618;2023-06-10T13:27:36;4.50;;;3.90;;
39778;SDS011;25454;49.878;8.618;2023-06-10T13:32:41;5.80;;;4.30;;
39778;SDS011;25454;49.878;8.618;2023-06-10T13:37:42;5.33;;;4.53;;
39778;SDS011;25454;49.878;8.618;2023-06-10T13:42:43;5.20;;;4.33;;
39778;SDS011;25454;49.878;8.618;2023-06-10T13:47:44;6.10;;;3.97;;
39778;SDS011;25454;49.878;8.618;2023-06-10T13:52:44;4.60;;;4.07;;
39778;SDS011;25454;49.878;8.618;2023-06-10T13:57:45;4.73;;;4.20;;
39778;SDS011;25454;49.878;8.618;2023-06-10T14:02:45;4.67;;;3.90;;
39778;SDS011;25454;49.878;8.618;2023-06-10T14:07:46;4.77;;;4.37;;
39778;SDS011;25454;49.878;8.618;2023-06-10T14:12:47;5.33;;;4.60;;
39778;SDS011;25454;49.878;8.618;2023-06-10T14:17:47;5.37;;;4.50;;
39778;SDS011;25454;49.878;8.618;2023-06-10T14:22:48;4.77;;;4.10;;
39778;SDS011;25454;49.878;8.618;2023-06-10T14:27:48;7.23;;;4.33;;
39778;SDS011;25454;49.878;8.618;2023-06-10T14:32:49;5.47;;;4.30;;
39778;SDS011;25454;49.878;8.618;2023-06-10T14:37:49;4.70;;;4.30;;
39778;SDS011;25454;49.878;8.618;2023-06-10T14:42:50;4.90;;;4.30;;
39778;SDS011;25454;49.878;8.618;2023-06-10T14:47:50;4.80;;;4.03;;
39778;SDS011;25454;49.878;8.618;2023-06-10T14:52:51;4.53;;;4.13;;
39778;SDS011;25454;49.878;8.618;2023-06-10T14:57:52;5.30;;;4.07;;
39778;SDS011;25454;49.878;8.618;2023-06-10T15:02:52;4.70;;;4.30;;
39778;SDS011;25454;49.878;8.618;2023-06-10T15:07:55;6.63;;;4.57;;
39778;SDS011;25454;49.878;8.618;2023-06-10T15:12:56;5.20;;;4.13;;
39778;SDS011;25454;49.878;8.618;2023-06-10T15:17:57;4.17;;;3.67;;
39778;SDS011;25454;49.878;8.618;2023-06-10T15:22:57;4.13;;;3.83;;
39778;SDS011;25454;49.878;8.618;2023-06-10T15:27:58;7.23;;;4.00;;
39778;SDS011;25454;49.878;8.618;2023-06-10T15:32:58;4.97;;;4.47;;
39778;SDS011;25454;49.878;8.618;2023-06-10T15:37:59;4.23;;;3.83;;
39778;SDS011;25454;49.878;8.618;2023-06-10T15:43:00;4.70;;;3.80;;
39778;SDS011;25454;49.878;8.618;2023-06-10T15:48:00;6.40;;;4.40;;
39778;SDS011;25454;49.878;8.618;2023-06-10T15:53:01;8.90;;;4.20;;
39778;SDS011;25454;49.878;8.618;2023-06-10T15:58:01;5.70;;;4.00;;
39778;SDS011;25454;49.878;8.618;2023-06-10T16:03:03;4.60;;;4.20;;
39778;SDS011;25454;49.878;8.618;2023-06-10T16:08:04;3.87;;;3.57;;
39778;SDS011;25454;49.878;8.618;2023-06-10T16:13:05;5.70;;;3.90;;
39778;SDS011;25454;49.878;8.618;2023-06-10T16:18:08;4.40;;;4.00;;
39778;SDS011;25454;49.878;8.618;2023-06-10T16:23:09;3.87;;;3.43;;
39778;SDS011;25454;49.878;8.618;2023-06-10T16:28:10;4.13;;;3.60;;
39778;SDS011;25454;49.878;8.618;2023-06-10T16:33:11;4.37;;;3.97;;
39778;SDS011;25454;49.878;8.618;2023-06-10T16:38:11;4.40;;;3.60;;
39778;SDS011;25454;49.878;8.618;2023-06-10T16:43:12;4.20;;;3.80;;
39778;SDS011;25454;49.878;8.618;2023-06-10T16:48:12;4.23;;;3.90;;
39778;SDS011;25454;49.878;8.618;2023-06-10T16:53:13;3.63;;;3.23;;
39778;SDS011;25454;49.878;8.618;2023-06-10T16:58:15;5.10;;;3.50;;
39778;SDS011;25454;49.878;8.618;2023-06-10T17:03:16;5.77;;;3.33;;
39778;SDS011;25454;49.878;8.618;2023-06-10T17:08:16;5.33;;;3.57;;
39778;SDS011;25454;49.878;8.618;2023-06-10T17:13:17;4.20;;;3.80;;
39778;SDS011;25454;49.878;8.618;2023-06-10T17:18:17;6.33;;;3.50;;
39778;SDS011;25454;49.878;8.618;2023-06-10T17:23:18;8.23;;;3.60;;
39778;SDS011;25454;49.878;8.618;2023-06-10T17:28:19;4.23;;;3.40;;
39778;SDS011;25454;49.878;8.618;2023-06-10T17:33:19;5.43;;;3.50;;
39778;SDS011;25454;49.878;8.618;2023-06-10T17:38:20;4.43;;;3.60;;
39778;SDS011;25454;49.878;8.618;2023-06-10T17:43:22;6.40;;;3.70;;
39778;SDS011;25454;49.878;8.618;2023-06-10T17:48:23;4.00;;;3.60;;
39778;SDS011;25454;49.878;8.618;2023-06-10T17:53:24;4.73;;;4.30;;
39778;SDS011;25454;49.878;8.618;2023-06-10T17:58:24;5.10;;;3.93;;
39778;SDS011;25454;49.878;8.618;2023-06-10T18:03:25;5.87;;;4.17;;
39778;SDS011;25454;49.878;8.618;2023-06-10T18:08:26;5.03;;;4.40;;
39778;SDS011;25454;49.878;8.618;2023-06-10T18:13:28;6.30;;;4.80;;
39778;SDS011;25454;49.878;8.618;2023-06-10T18:18:28;8.47;;;4.53;;
39778;SDS011;25454;49.878;8.618;2023-06-10T18:23:29;7.37;;;4.90;;
39778;SDS011;25454;49.878;8.618;2023-06-10T18:28:30;6.63;;;4.80;;
39778;SDS011;25454;49.878;8.618;2023-06-10T18:33:31;6.37;;;5.03;;
39778;SDS011;25454;49.878;8.618;2023-06-10T18:38:32;5.20;;;4.70;;
39778;SDS011;25454;49.878;8.618;2023-06-10T18:43:33;5.43;;;4.80;;
39778;SDS011;25454;49.878;8.618;2023-06-10T18:48:34;5.03;;;4.60;;
39778;SDS011;25454;49.878;8.618;2023-06-10T18:53:34;5.83;;;4.90;;
39778;SDS011;25454;49.878;8.618;2023-06-10T18:58:35;5.10;;;4.70;;
39778;SDS011;25454;49.878;8.618;2023-06-10T19:03:36;9.97;;;5.63;;
39778;SDS011;25454;49.878;8.618;2023-06-10T19:08:36;5.70;;;5.20;;
39778;SDS011;25454;49.878;8.618;2023-06-10T19:13:37;5.53;;;5.13;;
39778;SDS011;25454;49.878;8.618;2023-06-10T19:18:37;8.37;;;5.67;;
39778;SDS011;25454;49.878;8.618;2023-06-10T19:23:38;5.97;;;5.37;;
39778;SDS011;25454;49.878;8.618;2023-06-10T19:28:38;6.43;;;5.60;;
39778;SDS011;25454;49.878;8.618;2023-06-10T19:33:39;6.27;;;5.40;;
39778;SDS011;25454;49.878;8.618;2023-06-10T19:38:39;6.47;;;5.60;;
39778;SDS011;25454;49.878;8.618;2023-06-10T19:43:40;5.97;;;5.37;;
39778;SDS011;25454;49.878;8.618;2023-06-10T19:48:42;6.77;;;5.83;;
39778;SDS011;25454;49.878;8.618;2023-06-10T19:53:43;6.53;;;5.93;;
39778;SDS011;25454;49.878;8.618;2023-06-10T19:58:47;6.97;;;6.07;;
39778;SDS011;25454;49.878;8.618;2023-06-10T20:03:48;7.00;;;6.10;;
39778;SDS011;25454;49.878;8.618;2023-06-10T20:08:49;6.43;;;5.83;;
39778;SDS011;25454;49.878;8.618;2023-06-10T20:13:50;6.63;;;6.00;;
39778;SDS011;25454;49.878;8.618;2023-06-10T20:18:51;8.53;;;6.37;;
39778;SDS011;25454;49.878;8.618;2023-06-10T20:23:51;7.77;;;6.47;;
39778;SDS011;25454;49.878;8.618;2023-06-10T20:28:52;7.33;;;6.70;;
39778;SDS011;25454;49.878;8.618;2023-06-10T20:33:53;6.90;;;6.20;;
39778;SDS011;25454;49.878;8.618;2023-06-10T20:38:54;8.33;;;6.47;;
39778;SDS011;25454;49.878;8.618;2023-06-10T20:43:54;10.63;;;7.27;;
39778;SDS011;25454;49.878;8.618;2023-06-10T20:48:57;7.70;;;7.00;;
39778;SDS011;25454;49.878;8.618;2023-06-10T20:53:59;9.47;;;7.20;;
39778;SDS011;25454;49.878;8.618;2023-06-10T20:59:00;8.23;;;7.43;;
39778;SDS011;25454;49.878;8.618;2023-06-10T21:04:04;8.60;;;6.77;;
39778;SDS011;25454;49.878;8.618;2023-06-10T21:09:04;7.93;;;7.13;;
39778;SDS011;25454;49.878;8.618;2023-06-10T21:14:05;9.10;;;7.47;;
39778;SDS011;25454;49.878;8.618;2023-06-10T21:19:06;7.47;;;6.77;;
39778;SDS011;25454;49.878;8.618;2023-06-10T21:24:06;7.73;;;7.03;;
39778;SDS011;25454;49.878;8.618;2023-06-10T21:29:07;7.77;;;7.07;;
39778;SDS011;25454;49.878;8.618;2023-06-10T21:34:08;7.73;;;6.93;;
39778;SDS011;25454;49.878;8.618;2023-06-10T21:39:08;7.20;;;6.47;;
39778;SDS011;25454;49.878;8.618;2023-06-10T21:44:09;8.67;;;6.83;;
39778;SDS011;25454;49.878;8.618;2023-06-10T21:49:10;7.40;;;6.70;;
39778;SDS011;25454;49.878;8.618;2023-06-10T21:54:11;8.00;;;6.80;;
39778;SDS011;25454;49.878;8.618;2023-06-10T21:59:12;7.20;;;6.50;;
39778;SDS011;25454;49.878;8.618;2023-06-10T22:04:13;7.37;;;6.67;;
39778;SDS011;25454;49.878;8.618;2023-06-10T22:09:14;7.20;;;6.50;;
39778;SDS011;25454;49.878;8.618;2023-06-10T22:14:14;6.83;;;6.23;;
39778;SDS011;25454;49.878;8.618;2023-06-10T22:19:15;8.13;;;6.07;;
39778;SDS011;25454;49.878;8.618;2023-06-10T22:24:16;7.50;;;6.10;;
39778;SDS011;25454;49.878;8.618;2023-06-10T22:29:16;7.87;;;6.50;;
39778;SDS011;25454;49.878;8.618;2023-06-10T22:34:17;7.50;;;6.10;;
39778;SDS011;25454;49.878;8.618;2023-06-10T22:39:18;7.90;;;6.00;;
39778;SDS011;25454;49.878;8.618;2023-06-10T22:44:18;6.70;;;6.10;;
39778;SDS011;25454;49.878;8.618;2023-06-10T22:49:19;7.37;;;5.73;;
39778;SDS011;25454;49.878;8.618;2023-06-10T22:54:20;7.33;;;6.10;;
39778;SDS011;25454;49.878;8.618;2023-06-10T22:59:20;6.90;;;6.20;;
39778;SDS011;25454;49.878;8.618;2023-06-10T23:04:21;7.00;;;6.30;;
39778;SDS011;25454;49.878;8.618;2023-06-10T23:09:21;6.80;;;6.03;;
39778;SDS011;25454;49.878;8.618;2023-06-10T23:14:22;8.40;;;6.40;;
39778;SDS011;25454;49.878;8.618;2023-06-10T23:19:25;7.33;;;6.63;;
39778;SDS011;25454;49.878;8.618;2023-06-10T23:24:27;7.40;;;6.73;;
39778;SDS011;25454;49.878;8.618;2023-06-10T23:29:30;8.83;;;6.60;;
39778;SDS011;25454;49.878;8.618;2023-06-10T23:34:30;8.20;;;7.40;;
39778;SDS011;25454;49.878;8.618;2023-06-10T23:39:31;7.77;;;6.93;;
39778;SDS011;25454;49.878;8.618;2023-06-10T23:44:32;7.63;;;6.93;;
39778;SDS011;25454;49.878;8.618;2023-06-10T23:49:32;7.57;;;6.10;;
39778;SDS011;25454;49.878;8.618;2023-06-10T23:54:33;7.43;;;6.63;;
39778;SDS011;25454;49.878;8.618;2023-06-10T23:59:33;7.10;;;6.40;;
